Time;durP1;ratioP1;P1;durP2;ratioP2;P2;SDS_P1;SDS_P2;PMS_P1;PMS_P2;Temp;Humidity;BMP_temperature;BMP_pressure;BME280_temperature;BME280_humidity;BME280_pressure;Samples;Min_cycle;Max_cycle;Signal;HPM_P1;HPM_P2
2023/03/25 00:00:38;;;;;;;6.35;1.80;;;;;;;8.21;100.00;100084.88;5281098;28;20107;-68
2023/03/25 00:03:09;;;;;;;;;;;;;;;8.28;100.00;100089.72;5275253;28;20089;-68
2023/03/25 00:05:41;;;;;;;9.80;1.60;;;;;;;8.24;100.00;100079.31;5276101;28;19959;-68
2023/03/25 00:08:14;;;;;;;8.45;1.90;;;;;;;8.23;100.00;100084.78;5275158;28;20047;-68
2023/03/25 00:10:51;;;;;;;9.80;1.92;;;;;;;8.24;100.00;100086.44;5273113;28;20024;-68
2023/03/25 00:13:23;;;;;;;8.38;1.40;;;;;;;8.24;100.00;100087.28;5273913;28;20020;-68
2023/03/25 00:15:57;;;;;;;7.93;1.60;;;;;;;8.22;100.00;100083.06;5275415;28;20102;-68
2023/03/25 00:18:32;;;;;;;9.02;1.80;;;;;;;8.21;100.00;100087.53;5276582;28;20765;-68
2023/03/25 00:21:09;;;;;;;8.07;1.75;;;;;;;8.21;100.00;100086.72;5280565;28;20029;-68
2023/03/25 00:23:41;;;;;;;8.50;1.45;;;;;;;8.21;100.00;100082.22;5280241;28;21246;-68
2023/03/25 00:26:12;;;;;;;6.90;1.70;;;;;;;8.20;100.00;100075.22;5277280;28;20352;-68
2023/03/25 00:28:44;;;;;;;9.23;1.42;;;;;;;8.19;100.00;100076.19;5273923;28;20109;-68
2023/03/25 00:31:15;;;;;;;6.13;1.38;;;;;;;8.14;100.00;100073.03;5277644;28;20025;-68
2023/03/25 00:33:49;;;;;;;9.23;1.42;;;;;;;8.15;100.00;100076.53;5284278;28;20141;-67
2023/03/25 00:36:20;;;;;;;6.72;1.50;;;;;;;8.15;100.00;100056.16;5282350;28;20055;-68
2023/03/25 00:38:52;;;;;;;6.38;1.40;;;;;;;8.15;100.00;100057.94;5280145;28;20024;-68
2023/03/25 00:41:24;;;;;;;8.13;2.20;;;;;;;8.14;100.00;100072.22;5275537;28;20529;-68
2023/03/25 00:43:58;;;;;;;6.50;1.30;;;;;;;8.12;100.00;100067.00;5272625;28;20028;-68
2023/03/25 00:46:31;;;;;;;7.70;1.57;;;;;;;8.11;100.00;100062.69;5276748;28;20032;-68
2023/03/25 00:49:03;;;;;;;10.93;1.87;;;;;;;8.11;100.00;100072.44;5272147;28;20035;-68
2023/03/25 00:51:34;;;;;;;8.57;2.28;;;;;;;8.09;100.00;100061.09;5273545;28;20366;-68
2023/03/25 00:54:06;;;;;;;7.65;1.60;;;;;;;8.11;100.00;100062.69;5278158;28;20031;-68
2023/03/25 00:56:37;;;;;;;5.97;1.40;;;;;;;8.12;100.00;100068.84;5274098;28;20525;-68
2023/03/25 00:59:09;;;;;;;6.65;1.75;;;;;;;8.12;100.00;100064.34;5275730;28;20374;-68
2023/03/25 01:01:42;;;;;;;8.50;2.08;;;;;;;8.10;100.00;100057.47;5273032;28;20086;-68
2023/03/25 01:04:15;;;;;;;8.73;1.58;;;;;;;8.09;100.00;100066.41;5274135;28;20039;-68
2023/03/25 01:06:50;;;;;;;7.90;1.88;;;;;;;8.07;100.00;100053.22;5273199;28;20551;-68
2023/03/25 01:09:21;;;;;;;8.65;1.40;;;;;;;8.02;100.00;100056.25;5273102;28;20051;-67
2023/03/25 01:11:53;;;;;;;9.35;1.83;;;;;;;8.02;100.00;100060.75;5275438;28;20537;-68
2023/03/25 01:14:26;;;;;;;6.05;1.63;;;;;;;8.00;100.00;100060.00;5273959;28;20466;-67
2023/03/25 01:16:58;;;;;;;5.53;1.55;;;;;;;7.98;100.00;100054.81;5273584;28;20032;-68
2023/03/25 01:19:30;;;;;;;8.05;1.83;;;;;;;8.00;100.00;100055.53;5276538;28;20355;-68
2023/03/25 01:22:01;;;;;;;4.40;2.20;;;;;;;8.00;100.00;100063.50;5276546;28;20058;-68
2023/03/25 01:24:33;;;;;;;8.30;1.83;;;;;;;7.98;100.00;100061.94;5274751;28;20507;-68
2023/03/25 01:27:04;;;;;;;8.77;1.92;;;;;;;7.97;100.00;100060.25;5272980;28;20106;-68
2023/03/25 01:29:36;;;;;;;6.28;1.48;;;;;;;7.95;100.00;100065.66;5270834;28;20115;-68
2023/03/25 01:32:07;;;;;;;7.53;1.60;;;;;;;7.95;100.00;100063.00;5271380;28;20028;-67
2023/03/25 01:34:41;;;;;;;7.50;2.20;;;;;;;7.93;100.00;100062.28;5268322;28;20028;-68
2023/03/25 01:37:13;;;;;;;7.38;1.55;;;;;;;7.92;100.00;100063.28;5271874;28;20032;-68
2023/03/25 01:39:44;;;;;;;5.20;1.58;;;;;;;7.93;100.00;100067.59;5270000;28;20027;-68
2023/03/25 01:42:16;;;;;;;8.13;1.88;;;;;;;7.93;100.00;100070.25;5274092;28;22095;-68
2023/03/25 01:44:48;;;;;;;6.38;1.70;;;;;;;7.92;100.00;100068.59;5272741;28;20394;-68
2023/03/25 01:47:19;;;;;;;4.97;1.52;;;;;;;7.94;100.00;100061.34;5272175;28;20024;-68
2023/03/25 01:49:53;;;;;;;9.13;2.17;;;;;;;7.91;100.00;100066.88;5271466;28;20035;-68
2023/03/25 01:52:26;;;;;;;6.13;1.60;;;;;;;7.90;100.00;100054.59;5274010;28;20035;-68
2023/03/25 01:54:58;;;;;;;4.15;1.35;;;;;;;7.89;100.00;100054.69;5275350;28;20028;-68
2023/03/25 01:57:31;;;;;;;6.32;2.33;;;;;;;7.85;100.00;100060.22;5275828;28;20813;-68
2023/03/25 02:00:08;;;;;;;4.70;1.85;;;;;;;7.84;100.00;100055.91;5270040;28;20276;-67
2023/03/25 02:02:39;;;;;;;7.63;1.50;;;;;;;7.84;100.00;100058.56;5270481;28;20028;-68
2023/03/25 02:05:20;;;;;;;5.40;1.27;;;;;;;7.86;100.00;100055.75;5273294;28;20367;-68
2023/03/25 02:07:53;;;;;;;4.85;1.30;;;;;;;7.84;100.00;100058.56;5270329;28;20062;-68
2023/03/25 02:10:25;;;;;;;4.60;1.50;;;;;;;7.86;100.00;100066.38;5272647;28;20429;-68
2023/03/25 02:12:57;;;;;;;8.55;1.90;;;;;;;7.87;100.00;100061.94;5272517;28;20289;-68
2023/03/25 02:15:39;;;;;;;5.13;1.58;;;;;;;7.87;100.00;100046.84;5272175;28;20032;-68
2023/03/25 02:18:33;;;;;;;6.03;1.50;;;;;;;7.84;100.00;100052.38;5271853;28;20378;-68
2023/03/25 02:21:30;;;;;;;6.00;1.70;;;;;;;7.84;100.00;100041.75;5277425;28;20035;-68
2023/03/25 02:24:42;;;;;;;5.88;1.52;;;;;;;7.83;100.00;100038.25;5274954;28;20329;-68
2023/03/25 02:27:32;;;;;;;6.75;1.75;;;;;;;7.85;100.00;100051.44;5271249;28;20060;-69
2023/03/25 02:30:17;;;;;;;7.10;1.40;;;;;;;7.83;100.00;100050.69;5269464;28;20040;-68
2023/03/25 02:33:26;;;;;;;7.68;1.88;;;;;;;7.86;100.00;100055.75;5277272;28;20081;-68
2023/03/25 02:36:16;;;;;;;6.65;1.50;;;;;;;7.84;100.00;100052.38;5278657;28;20115;-68
2023/03/25 02:38:58;;;;;;;7.60;1.60;;;;;;;7.82;100.00;100060.50;5276316;28;20036;-68
2023/03/25 02:41:42;;;;;;;7.60;1.67;;;;;;;7.82;100.00;100052.53;5282506;28;20444;-68
2023/03/25 02:44:27;;;;;;;4.45;1.45;;;;;;;7.80;100.00;100059.72;5278405;28;20034;-68
2023/03/25 02:47:03;;;;;;;6.68;2.00;;;;;;;7.78;100.00;100053.69;5281904;28;20032;-68
2023/03/25 02:49:43;;;;;;;7.07;1.48;;;;;;;7.79;100.00;100057.22;5281577;28;20164;-68
2023/03/25 02:52:38;;;;;;;7.88;1.70;;;;;;;7.81;100.00;100058.78;5277518;28;20043;-68
2023/03/25 02:55:13;;;;;;;8.32;1.90;;;;;;;7.75;100.00;100055.78;5277646;28;20035;-68
2023/03/25 02:57:48;;;;;;;8.35;2.08;;;;;;;7.71;100.00;100047.19;5285407;28;20138;-68
2023/03/25 03:00:25;;;;;;;;;;;;;;;7.75;100.00;100042.50;5279800;28;20369;-68
2023/03/25 03:03:00;;;;;;;8.45;2.10;;;;;;;7.68;100.00;100041.28;5279142;28;19969;-68
2023/03/25 03:05:34;;;;;;;8.75;1.98;;;;;;;7.64;100.00;100054.78;5285203;28;20516;-69
2023/03/25 03:08:28;;;;;;;8.65;2.15;;;;;;;7.63;100.00;100049.56;5293022;28;20043;-68
2023/03/25 03:11:08;;;;;;;9.77;2.00;;;;;;;7.61;100.00;100044.41;5282637;28;20394;-69
2023/03/25 03:14:08;;;;;;;9.68;2.20;;;;;;;7.62;100.00;100051.41;5277322;28;20408;-68
2023/03/25 03:16:57;;;;;;;8.85;1.85;;;;;;;7.60;100.00;100032.09;5281385;28;20038;-68
2023/03/25 03:19:49;;;;;;;7.90;2.50;;;;;;;7.59;100.00;100035.72;5279506;28;20032;-68
2023/03/25 03:22:34;;;;;;;11.27;1.98;;;;;;;7.56;100.00;100030.63;5281693;28;20036;-68
2023/03/25 03:25:05;;;;;;;;;;;;;;;7.58;100.00;100031.34;5280344;28;20043;-68
2023/03/25 03:27:51;;;;;;;8.27;1.83;;;;;;;7.54;100.00;100040.53;5279804;28;19924;-68
2023/03/25 03:30:34;;;;;;;8.25;2.10;;;;;;;7.54;100.00;100045.00;5274438;28;20060;-68
2023/03/25 03:33:29;;;;;;;11.65;1.83;;;;;;;7.54;100.00;100045.00;5285221;28;20028;-68
2023/03/25 03:36:03;;;;;;;;;;;;;;;7.57;100.00;100028.81;5289004;28;20173;-68
2023/03/25 03:38:42;;;;;;;11.70;2.42;;;;;;;7.53;100.00;100038.81;5285457;28;20358;-68
2023/03/25 03:41:18;;;;;;;18.02;3.03;;;;;;;7.53;100.00;100038.81;5284514;28;20020;-68
2023/03/25 03:43:58;;;;;;;10.07;1.98;;;;;;;7.52;100.00;100031.84;5286792;28;20107;-68
2023/03/25 03:46:53;;;;;;;12.10;2.90;;;;;;;7.55;100.00;100033.41;5282884;28;20469;-68
2023/03/25 03:49:37;;;;;;;10.82;1.95;;;;;;;7.57;100.00;100039.44;5283517;28;20036;-69
2023/03/25 03:52:20;;;;;;;9.83;2.13;;;;;;;7.56;100.00;100041.25;5271772;28;20107;-68
2023/03/25 03:55:09;;;;;;;8.95;1.90;;;;;;;7.52;100.00;100033.66;5275643;28;20302;-69
2023/03/25 03:57:47;;;;;;;13.63;2.58;;;;;;;7.49;100.00;100026.75;5274819;28;20056;-68
2023/03/25 04:00:28;;;;;;;8.32;2.28;;;;;;;7.45;100.00;100042.06;5275036;28;20055;-68
2023/03/25 04:03:13;;;;;;;13.50;2.72;;;;;;;7.42;100.00;100034.34;5276647;28;20115;-68
2023/03/25 04:05:53;;;;;;;5.90;1.85;;;;;;;7.41;100.00;100035.31;5275571;28;20024;-68
2023/03/25 04:08:36;;;;;;;7.25;1.88;;;;;;;7.42;100.00;100038.78;5273892;28;20486;-68
2023/03/25 04:11:15;;;;;;;8.73;2.10;;;;;;;7.42;100.00;100042.31;5275867;28;20201;-68
2023/03/25 04:13:50;;;;;;;9.77;1.90;;;;;;;7.43;100.00;100048.47;5274359;28;20078;-68
2023/03/25 04:16:23;;;;;;;10.00;1.80;;;;;;;7.42;100.00;100033.47;5275290;28;20060;-68
2023/03/25 04:18:57;;;;;;;9.55;2.33;;;;;;;7.38;100.00;100032.91;5272801;28;20466;-68
2023/03/25 04:21:32;;;;;;;6.67;1.53;;;;;;;7.39;100.00;100041.69;5272190;28;20032;-68
2023/03/25 04:24:07;;;;;;;6.93;1.70;;;;;;;7.39;100.00;100037.22;5270259;28;20025;-68
2023/03/25 04:26:38;;;;;;;11.45;1.92;;;;;;;7.38;100.00;100030.25;5275076;28;20073;-68
2023/03/25 04:29:09;;;;;;;8.98;1.50;;;;;;;7.39;100.00;100023.13;5274321;28;20084;-68
2023/03/25 04:31:44;;;;;;;7.40;2.30;;;;;;;7.38;100.00;100037.34;5272916;28;20033;-68
2023/03/25 04:34:16;;;;;;;7.97;1.48;;;;;;;7.43;100.00;100029.88;5274703;28;20035;-68
2023/03/25 04:36:49;;;;;;;5.78;1.42;;;;;;;7.42;100.00;100034.34;5276733;28;21764;-68
2023/03/25 04:39:23;;;;;;;9.63;1.60;;;;;;;7.41;100.00;100027.34;5273030;28;20043;-68
2023/03/25 04:41:55;;;;;;;7.28;1.52;;;;;;;7.42;100.00;100038.78;5275380;28;20032;-68
2023/03/25 04:44:27;;;;;;;11.18;2.20;;;;;;;7.44;100.00;100047.47;5271932;28;20032;-68
2023/03/25 04:47:01;;;;;;;9.55;1.77;;;;;;;7.41;100.00;100045.09;5273673;28;20421;-68
2023/03/25 04:49:32;;;;;;;9.52;1.70;;;;;;;7.43;100.00;100051.13;5274056;28;20095;-68
2023/03/25 04:52:04;;;;;;;10.57;2.00;;;;;;;7.41;100.00;100040.59;5279395;28;20436;-68
2023/03/25 04:54:37;;;;;;;8.93;1.50;;;;;;;7.42;100.00;100042.31;5276536;28;21463;-68
2023/03/25 04:57:08;;;;;;;9.15;1.98;;;;;;;7.40;100.00;100027.44;5275202;28;20478;-67
2023/03/25 04:59:40;;;;;;;6.68;1.80;;;;;;;7.44;100.00;100044.81;5275539;28;20462;-68
2023/03/25 05:02:12;;;;;;;9.57;2.10;;;;;;;7.41;100.00;100034.47;5276206;28;20028;-68
2023/03/25 05:04:46;;;;;;;8.13;2.45;;;;;;;7.39;100.00;100031.09;5272592;28;20032;-68
2023/03/25 05:07:17;;;;;;;7.45;1.63;;;;;;;7.40;100.00;100040.72;5272378;28;20032;-68
2023/03/25 05:09:49;;;;;;;7.50;1.55;;;;;;;7.39;100.00;100039.03;5273519;28;20067;-68
2023/03/25 05:12:20;;;;;;;12.57;2.15;;;;;;;7.37;100.00;100033.00;5274948;28;20031;-68
2023/03/25 05:14:51;;;;;;;9.35;2.28;;;;;;;7.37;100.00;100020.59;5273737;28;20039;-68
2023/03/25 05:17:23;;;;;;;10.85;1.75;;;;;;;7.35;100.00;100035.78;5274754;28;20031;-68
2023/03/25 05:19:55;;;;;;;8.18;1.42;;;;;;;7.33;100.00;100028.91;5271834;28;20177;-68
2023/03/25 05:22:27;;;;;;;8.00;1.83;;;;;;;7.31;100.00;100029.00;5269859;28;20360;-68
2023/03/25 05:25:01;;;;;;;8.50;1.50;;;;;;;7.32;100.00;100043.13;5280769;28;20039;-68
2023/03/25 05:27:33;;;;;;;7.50;2.13;;;;;;;7.30;100.00;100045.03;5272772;28;21227;-68
2023/03/25 05:30:06;;;;;;;8.40;1.52;;;;;;;7.29;100.00;100053.94;5272191;28;21504;-68
2023/03/25 05:32:39;;;;;;;9.00;1.75;;;;;;;7.30;100.00;100059.16;5273045;28;20024;-68
2023/03/25 05:35:11;;;;;;;8.55;1.90;;;;;;;7.30;100.00;100051.19;5275610;28;21030;-68
2023/03/25 05:37:42;;;;;;;8.70;1.67;;;;;;;7.31;100.00;100057.38;5275076;28;20043;-68
2023/03/25 05:40:14;;;;;;;9.15;1.75;;;;;;;7.30;100.00;100045.03;5274762;28;20096;-68
2023/03/25 05:42:45;;;;;;;8.75;1.60;;;;;;;7.31;100.00;100052.91;5270773;28;20040;-68
2023/03/25 05:45:17;;;;;;;7.25;1.83;;;;;;;7.32;100.00;100053.72;5274139;28;20560;-68
2023/03/25 05:47:49;;;;;;;8.88;1.60;;;;;;;7.31;100.00;100057.38;5272134;28;20032;-68
2023/03/25 05:50:21;;;;;;;6.63;1.80;;;;;;;7.31;100.00;100047.59;5272963;28;20894;-68
2023/03/25 05:52:54;;;;;;;6.93;1.45;;;;;;;7.32;100.00;100056.38;5273850;28;20061;-68
2023/03/25 05:55:26;;;;;;;5.22;1.60;;;;;;;7.34;100.00;100060.59;5272335;28;20678;-68
2023/03/25 05:57:57;;;;;;;8.40;1.95;;;;;;;7.33;100.00;100069.53;5276480;28;20028;-68
2023/03/25 06:00:29;;;;;;;8.02;1.67;;;;;;;7.31;100.00;100076.78;5271949;28;20020;-68
2023/03/25 06:03:00;;;;;;;6.22;1.63;;;;;;;7.33;100.00;100068.72;5271495;28;20027;-68
2023/03/25 06:05:32;;;;;;;9.77;2.53;;;;;;;7.32;100.00;100070.50;5270591;28;20067;-68
2023/03/25 06:08:04;;;;;;;9.63;1.83;;;;;;;7.31;100.00;100066.16;5274334;28;20110;-68
2023/03/25 06:10:35;;;;;;;6.85;1.77;;;;;;;7.30;100.00;100087.50;5273112;28;20028;-67
2023/03/25 06:13:06;;;;;;;9.05;1.83;;;;;;;7.29;100.00;100085.78;5274689;28;20394;-68
2023/03/25 06:15:40;;;;;;;6.25;1.58;;;;;;;7.29;100.00;100080.47;5273341;28;20024;-68
2023/03/25 06:18:12;;;;;;;9.45;1.92;;;;;;;7.30;100.00;100083.03;5271722;28;20508;-68
2023/03/25 06:20:43;;;;;;;9.80;2.63;;;;;;;7.29;100.00;100080.47;5273392;28;20028;-68
2023/03/25 06:23:14;;;;;;;8.73;1.90;;;;;;;7.30;100.00;100082.19;5270787;28;20070;-70
2023/03/25 06:25:46;;;;;;;8.73;1.67;;;;;;;7.32;100.00;100083.75;5274410;28;20567;-68
2023/03/25 06:28:18;;;;;;;10.10;1.98;;;;;;;7.34;100.00;100076.53;5271355;28;20375;-68
2023/03/25 06:30:49;;;;;;;8.63;2.00;;;;;;;7.33;100.00;100080.16;5273119;28;20453;-68
2023/03/25 06:33:21;;;;;;;11.27;2.05;;;;;;;7.34;100.00;100071.22;5272026;28;20025;-68
2023/03/25 06:35:53;;;;;;;9.20;2.00;;;;;;;7.35;100.00;100077.41;5274494;28;20035;-68
2023/03/25 06:38:25;;;;;;;14.32;2.50;;;;;;;7.36;100.00;100073.75;5273265;28;20482;-68
2023/03/25 06:40:56;;;;;;;12.40;2.45;;;;;;;7.38;100.00;100080.66;5275146;28;20115;-68
2023/03/25 06:43:27;;;;;;;11.52;2.05;;;;;;;7.39;100.00;100089.47;5271034;28;20558;-68
2023/03/25 06:45:59;;;;;;;8.77;2.28;;;;;;;7.44;100.00;100081.97;5275250;28;20031;-68
2023/03/25 06:48:30;;;;;;;11.32;2.97;;;;;;;7.52;100.00;100089.41;5275702;28;20032;-69
2023/03/25 06:51:02;;;;;;;14.20;3.15;;;;;;;7.59;100.00;100093.25;5272475;28;20032;-68
2023/03/25 06:53:33;;;;;;;14.40;2.55;;;;;;;7.66;100.00;100099.78;5276092;28;20016;-68
2023/03/25 06:56:05;;;;;;;10.77;2.35;;;;;;;7.72;100.00;100098.47;5278164;28;20024;-68
2023/03/25 06:58:36;;;;;;;13.10;2.60;;;;;;;7.75;100.00;100098.25;5273767;28;20028;-68
2023/03/25 07:01:08;;;;;;;15.65;2.97;;;;;;;7.78;100.00;100103.31;5274246;28;20379;-68
2023/03/25 07:03:40;;;;;;;14.13;2.85;;;;;;;7.87;100.00;100107.09;5270973;28;20070;-68
2023/03/25 07:06:20;;;;;;;17.08;3.55;;;;;;;7.91;100.00;100089.94;5275505;28;20108;-68
2023/03/25 07:08:51;;;;;;;10.50;2.25;;;;;;;7.93;100.00;100103.94;5276822;28;20325;-68
2023/03/25 07:11:27;;;;;;;12.88;2.22;;;;;;;7.93;100.00;100091.50;5288013;28;20023;-68
2023/03/25 07:13:59;;;;;;;9.52;2.17;;;;;;;7.96;100.00;100101.06;5273648;28;20732;-67
2023/03/25 07:16:30;;;;;;;9.63;2.28;;;;;;;7.97;100.00;100089.47;5280552;28;20031;-68
2023/03/25 07:19:02;;;;;;;15.10;2.90;;;;;;;8.03;100.00;100092.50;5295701;28;20119;-68
2023/03/25 07:21:34;;;;;;;11.80;2.47;;;;;;;8.11;100.00;100089.25;5287459;28;20655;-68
2023/03/25 07:24:05;;;;;;;8.95;2.05;;;;;;;8.13;100.00;100099.72;5283862;28;20447;-68
2023/03/25 07:26:37;;;;;;;13.73;2.47;;;;;;;8.17;100.00;100101.19;5291181;28;20587;-68
2023/03/25 07:29:08;;;;;;;12.77;2.47;;;;;;;8.19;100.00;100100.09;5289149;28;20078;-68
2023/03/25 07:31:40;;;;;;;11.88;2.53;;;;;;;8.19;100.00;100104.59;5291345;28;20035;-68
2023/03/25 07:34:11;;;;;;;11.43;2.75;;;;;;;8.21;100.00;100107.97;5285944;28;20027;-68
2023/03/25 07:36:43;;;;;;;17.88;4.13;;;;;;;8.18;100.00;100109.03;5279364;28;20082;-68
2023/03/25 07:39:17;;;;;;;15.52;2.97;;;;;;;8.16;100.00;100126.06;5281727;28;20498;-68
2023/03/25 07:41:48;;;;;;;15.20;2.30;;;;;;;8.14;100.00;100125.34;5280467;28;20038;-68
2023/03/25 07:44:20;;;;;;;12.85;2.67;;;;;;;8.11;100.00;100125.56;5286885;28;20588;-68
2023/03/25 07:46:51;;;;;;;14.93;2.70;;;;;;;8.09;100.00;100115.06;5286494;28;20119;-68
2023/03/25 07:49:23;;;;;;;16.17;3.25;;;;;;;8.05;100.00;100127.75;5279991;28;20312;-68
2023/03/25 07:51:54;;;;;;;11.68;2.58;;;;;;;8.03;100.00;100135.00;5283806;28;20831;-68
2023/03/25 07:54:27;;;;;;;12.82;3.03;;;;;;;8.03;100.00;100132.34;5278031;28;20486;-68
2023/03/25 07:56:59;;;;;;;16.38;3.15;;;;;;;8.05;100.00;100126.91;5282409;28;20427;-68
2023/03/25 07:59:30;;;;;;;11.18;2.63;;;;;;;8.07;100.00;100132.94;5289965;28;20043;-68
2023/03/25 08:02:01;;;;;;;13.57;2.47;;;;;;;8.10;100.00;100127.41;5292601;28;20040;-68
2023/03/25 08:04:33;;;;;;;14.60;3.03;;;;;;;8.18;100.00;100129.44;5283478;28;20483;-68
2023/03/25 08:07:05;;;;;;;11.60;2.30;;;;;;;8.25;100.00;100139.47;5290419;28;20111;-67
2023/03/25 08:09:36;;;;;;;14.30;2.65;;;;;;;8.37;100.00;100135.00;5285843;28;20020;-68
2023/03/25 08:12:08;;;;;;;10.82;2.22;;;;;;;8.50;100.00;100140.25;5289405;28;20089;-68
2023/03/25 08:14:39;;;;;;;13.50;2.47;;;;;;;8.62;100.00;100143.75;5281558;28;20412;-68
2023/03/25 08:17:11;;;;;;;11.40;2.33;;;;;;;8.72;100.00;100142.03;5291831;28;20070;-68
2023/03/25 08:19:42;;;;;;;14.80;2.58;;;;;;;8.85;100.00;100149.88;5291532;27;20456;-68
2023/03/25 08:22:14;;;;;;;14.23;2.63;;;;;;;8.86;100.00;100150.72;5296032;28;20093;-68
2023/03/25 08:24:46;;;;;;;12.82;2.65;;;;;;;8.86;100.00;100151.59;5287282;28;20028;-68
2023/03/25 08:27:18;;;;;;;14.02;3.25;;;;;;;8.81;100.00;100165.25;5286056;28;20033;-68
2023/03/25 08:29:56;;;;;;;13.05;3.20;;;;;;;8.77;100.00;100165.63;5285798;28;20047;-68
2023/03/25 08:32:27;;;;;;;17.20;3.28;;;;;;;8.70;100.00;100173.22;5289270;28;20077;-68
2023/03/25 08:34:58;;;;;;;13.57;2.50;;;;;;;8.64;100.00;100179.88;5289440;28;20027;-68
2023/03/25 08:37:34;;;;;;;10.10;2.40;;;;;;;8.59;100.00;100175.88;5288254;28;20036;-68
2023/03/25 08:40:07;;;;;;;12.57;3.17;;;;;;;8.52;100.00;100174.69;5290211;28;20032;-68
2023/03/25 08:42:39;;;;;;;15.73;3.55;;;;;;;8.45;100.00;100176.97;5296004;28;20075;-68
2023/03/25 08:45:11;;;;;;;16.58;3.60;;;;;;;8.41;100.00;100176.38;5280081;28;20057;-68
2023/03/25 08:47:44;;;;;;;16.67;3.35;;;;;;;8.40;100.00;100177.31;5287642;28;20097;-68
2023/03/25 08:50:16;;;;;;;14.32;3.22;;;;;;;8.43;100.00;100174.44;5286756;28;20024;-68
2023/03/25 08:52:47;;;;;;;14.82;3.25;;;;;;;8.57;100.00;100177.81;5295668;28;20382;-68
2023/03/25 08:55:19;;;;;;;14.25;3.08;;;;;;;8.61;100.00;100169.50;5284189;28;20371;-68
2023/03/25 08:57:50;;;;;;;16.50;3.58;;;;;;;8.73;100.00;100182.78;5295368;28;20039;-68
2023/03/25 09:00:23;;;;;;;14.90;3.25;;;;;;;8.77;100.00;100181.56;5289145;28;20105;-68
2023/03/25 09:02:57;;;;;;;14.27;3.40;;;;;;;8.79;100.00;100188.44;5286328;28;20554;-68
2023/03/25 09:05:29;;;;;;;13.13;3.10;;;;;;;8.80;100.00;100176.84;5285842;28;20024;-68
2023/03/25 09:08:01;;;;;;;13.68;3.42;;;;;;;8.80;100.00;100187.50;5292833;28;20093;-68
2023/03/25 09:10:32;;;;;;;18.30;3.97;;;;;;;8.84;100.00;100177.47;5294336;28;20032;-68
2023/03/25 09:13:04;;;;;;;15.43;3.50;;;;;;;8.86;100.00;100172.00;5287219;28;20060;-67
2023/03/25 09:15:35;;;;;;;16.38;4.32;;;;;;;8.96;100.00;100173.81;5289464;28;20103;-68
2023/03/25 09:18:07;;;;;;;17.58;3.92;;;;;;;9.04;100.00;100173.19;5292276;28;20024;-68
2023/03/25 09:20:42;;;;;;;15.88;3.33;;;;;;;9.14;100.00;100179.44;5288426;28;20204;-68
2023/03/25 09:23:15;;;;;;;16.63;3.80;;;;;;;9.19;100.00;100171.94;5284912;28;20034;-68
2023/03/25 09:25:46;;;;;;;15.15;3.67;;;;;;;9.27;100.00;100160.66;5286413;28;20072;-68
2023/03/25 09:28:17;;;;;;;14.73;3.35;;;;;;;9.38;100.00;100173.09;5295798;28;20445;-68
2023/03/25 09:30:49;;;;;;;13.15;3.50;;;;;;;9.40;100.00;100171.16;5298778;28;20450;-68
2023/03/25 09:33:20;;;;;;;20.67;4.05;;;;;;;9.53;100.00;100171.84;5288331;28;20059;-68
2023/03/25 09:35:52;;;;;;;18.58;3.85;;;;;;;9.63;100.00;100174.56;5292753;28;20039;-68
2023/03/25 09:38:24;;;;;;;19.95;3.55;;;;;;;9.75;100.00;100186.84;5287498;28;20460;-68
2023/03/25 09:40:55;;;;;;;17.05;3.08;;;;;;;9.83;100.00;100178.22;5294962;28;20032;-68
2023/03/25 09:43:50;;;;;;;19.30;3.08;;;;;;;9.95;100.00;100182.53;5279629;28;20039;-68
2023/03/25 09:46:22;;;;;;;15.05;3.05;;;;;;;10.01;100.00;100176.69;5284046;28;20082;-68
2023/03/25 09:48:54;;;;;;;18.05;3.50;;;;;;;10.05;100.00;100187.06;5276916;28;20032;-68
2023/03/25 09:51:30;;;;;;;15.15;4.10;;;;;;;10.05;100.00;100181.72;5290153;28;20108;-67
2023/03/25 09:54:15;;;;;;;11.70;2.97;;;;;;;10.07;100.00;100206.44;5286569;28;20019;-67
2023/03/25 09:56:49;;;;;;;15.27;3.50;;;;;;;10.13;100.00;100185.44;5281197;28;20052;-67
2023/03/25 09:59:24;;;;;;;18.10;4.05;;;;;;;10.16;100.00;100192.31;5288981;28;20020;-68
2023/03/25 10:02:10;;;;;;;15.88;4.20;;;;;;;10.23;100.00;100184.66;5284915;28;20047;-67
2023/03/25 10:04:51;;;;;;;13.30;3.88;;;;;;;10.31;100.00;100188.38;5288987;28;20223;-67
2023/03/25 10:07:40;;;;;;;17.58;4.60;;;;;;;10.42;100.00;100187.47;5280312;28;20044;-67
2023/03/25 10:10:18;;;;;;;17.10;3.67;;;;;;;10.50;100.00;100178.78;5288346;28;20186;-67
2023/03/25 10:12:59;;;;;;;21.38;4.40;;;;;;;10.58;100.00;100179.84;5299903;28;20031;-68
2023/03/25 10:15:48;;;;;;;22.55;4.28;;;;;;;10.67;100.00;100193.34;5294275;28;20064;-67
2023/03/25 10:18:32;;;;;;;14.82;4.03;;;;;;;10.75;100.00;100169.47;5288296;28;20036;-68
2023/03/25 10:21:22;;;;;;;18.38;4.15;;;;;;;10.86;100.00;100171.22;5280689;28;20167;-67
2023/03/25 10:24:32;;;;;;;20.40;4.45;;;;;;;11.01;100.00;100180.53;5287852;28;20032;-67
2023/03/25 10:27:29;;;;;;;17.30;4.30;;;;;;;11.18;100.00;100171.03;5288291;28;20062;-68
2023/03/25 10:30:24;;;;;;;17.92;4.55;;;;;;;11.24;100.00;100180.28;5286462;28;20136;-68
2023/03/25 10:32:59;;;;;;;17.13;4.35;;;;;;;11.22;100.00;100179.56;5295577;28;20032;-67
2023/03/25 10:35:38;;;;;;;17.05;3.70;;;;;;;11.12;100.00;100180.41;5288074;28;20056;-67
2023/03/25 10:38:20;;;;;;;13.88;3.97;;;;;;;11.12;100.00;100179.56;5282553;28;20090;-67
2023/03/25 10:41:12;;;;;;;19.95;4.15;;;;;;;11.05;100.00;100184.63;5291870;28;20027;-67
2023/03/25 10:43:43;;;;;;;13.70;3.30;;;;;;;11.08;100.00;100175.47;5298430;28;20070;-68
2023/03/25 10:46:19;;;;;;;14.85;3.22;;;;;;;11.19;100.00;100189.53;5292811;28;20055;-67
2023/03/25 10:48:51;;;;;;;14.10;3.15;;;;;;;11.24;100.00;100186.47;5283473;28;20063;-68
2023/03/25 10:51:26;;;;;;;17.05;4.28;;;;;;;11.36;100.00;100184.53;5281855;28;20119;-68
2023/03/25 10:53:59;;;;;;;16.23;4.00;;;;;;;11.41;100.00;100179.63;5283833;28;20032;-67
2023/03/25 10:56:35;;;;;;;14.05;3.30;;;;;;;11.54;100.00;100190.00;5291610;28;20028;-68
2023/03/25 10:59:18;;;;;;;14.75;2.88;;;;;;;11.58;100.00;100186.06;5288147;28;20032;-68
2023/03/25 11:01:52;;;;;;;11.40;2.70;;;;;;;11.66;100.00;100186.25;5285374;28;20039;-68
2023/03/25 11:04:34;;;;;;;12.43;2.28;;;;;;;11.77;100.00;100187.91;5292739;28;20033;-68
2023/03/25 11:07:18;;;;;;;14.23;2.72;;;;;;;11.80;100.00;100198.31;5289976;28;20034;-67
2023/03/25 11:09:50;;;;;;;12.00;2.70;;;;;;;11.83;100.00;100182.00;5298639;28;20043;-68
2023/03/25 11:12:22;;;;;;;11.25;2.30;;;;;;;11.82;100.00;100209.72;5282227;28;20051;-68
2023/03/25 11:14:58;;;;;;;9.48;1.80;;;;;;;11.76;100.00;100204.94;5298382;28;20481;-67
2023/03/25 11:17:29;;;;;;;8.85;2.08;;;;;;;11.75;100.00;100200.56;5286013;28;20077;-67
2023/03/25 11:20:09;;;;;;;8.65;1.90;;;;;;;11.82;100.00;100203.53;5294710;28;20382;-67
2023/03/25 11:22:46;;;;;;;12.63;2.22;;;;;;;11.75;100.00;100205.91;5302899;28;20027;-67
2023/03/25 11:25:24;;;;;;;11.10;1.65;;;;;;;11.77;100.00;100201.25;5286616;28;20355;-67
2023/03/25 11:27:58;;;;;;;12.30;2.20;;;;;;;11.83;100.00;100213.22;5288160;28;20164;-67
2023/03/25 11:30:29;;;;;;;;;;;;;;;11.95;100.00;100209.47;5286771;28;20111;-67
2023/03/25 11:33:16;;;;;;;10.13;1.83;;;;;;;11.90;100.00;100199.19;5281314;28;19916;-67
2023/03/25 11:35:47;;;;;;;9.63;1.70;;;;;;;11.89;100.00;100199.28;5293311;28;20038;-67
2023/03/25 11:38:22;;;;;;;10.88;2.25;;;;;;;11.90;100.00;100201.84;5284652;28;20443;-67
2023/03/25 11:40:57;;;;;;;12.27;2.22;;;;;;;11.93;100.00;100214.94;5276216;28;20070;-67
2023/03/25 11:43:35;;;;;;;10.40;2.22;;;;;;;11.90;100.00;100203.69;5292748;28;20117;-67
2023/03/25 11:46:15;;;;;;;13.52;2.10;;;;;;;11.88;100.00;100201.13;5281161;28;20027;-67
2023/03/25 11:48:49;;;;;;;7.95;2.10;;;;;;;11.83;100.00;100208.75;5283132;28;20028;-67
2023/03/25 11:51:24;;;;;;;9.27;1.92;;;;;;;11.77;100.00;100188.78;5286748;28;20129;-67
2023/03/25 11:54:01;;;;;;;8.35;2.38;;;;;;;11.73;100.00;100206.03;5277853;28;20039;-67
2023/03/25 11:56:35;;;;;;;13.07;2.13;;;;;;;11.76;100.00;100199.59;5290323;28;20045;-67
2023/03/25 11:59:08;;;;;;;;;;;;;;;11.74;100.00;100189.03;5286881;28;20044;-67